Time;durP1;ratioP1;P1;durP2;ratioP2;P2;SDS_P1;SDS_P2;PMS_P1;PMS_P2;Temp;Humidity;BMP_temperature;BMP_pressure;BME280_temperature;BME280_humidity;BME280_pressure;Samples;Min_cycle;Max_cycle;Signal;HPM_P1;HPM_P2
2023/11/02 00:01:55;;;;;;;6.90;3.40;;;;;;;15.55;53.37;99515.25;107531;1265;70317;-65
2023/11/02 00:04:23;;;;;;;7.60;3.30;;;;;;;15.72;53.06;99515.92;107459;1263;71598;-67
2023/11/02 00:06:51;;;;;;;9.90;4.60;;;;;;;15.71;52.89;99517.71;107416;1260;60456;-67
2023/11/02 00:09:34;;;;;;;4.20;3.10;;;;;;;15.63;53.10;99514.89;107501;1265;60061;-66
2023/11/02 00:12:07;;;;;;;6.10;3.10;;;;;;;15.76;52.76;99513.87;107458;1260;71945;-65
2023/11/02 00:14:51;;;;;;;5.60;3.40;;;;;;;15.88;52.50;99512.03;107465;1260;69971;-68
2023/11/02 00:17:35;;;;;;;5.00;3.30;;;;;;;15.77;52.68;99513.79;107534;1260;72438;-66
2023/11/02 00:20:12;;;;;;;4.60;3.10;;;;;;;15.85;52.56;99512.38;107455;1260;59891;-66
2023/11/02 00:22:48;;;;;;;7.00;3.30;;;;;;;16.01;52.14;99512.55;107443;1260;59509;-66
2023/11/02 00:25:34;;;;;;;5.10;3.30;;;;;;;15.83;52.53;99512.20;107551;1260;71739;-66
2023/11/02 00:28:03;;;;;;;4.90;3.30;;;;;;;15.85;52.71;99514.02;107398;1266;70328;-66
2023/11/02 00:30:30;;;;;;;4.00;3.10;;;;;;;15.81;52.58;99512.33;107400;1260;70470;-66
2023/11/02 00:32:58;;;;;;;5.10;3.40;;;;;;;15.90;52.48;99511.70;107482;1260;59686;-67
2023/11/02 00:35:26;;;;;;;5.70;3.30;;;;;;;15.88;52.35;99513.43;107424;1260;59600;-67
2023/11/02 00:37:54;;;;;;;4.30;3.30;;;;;;;15.81;52.52;99516.21;107557;1260;72053;-66
2023/11/02 00:40:21;;;;;;;5.90;3.80;;;;;;;15.69;52.64;99517.35;107461;1260;69977;-66
2023/11/02 00:42:48;;;;;;;6.60;3.30;;;;;;;15.50;53.06;99515.05;107490;1260;71634;-65
2023/11/02 00:45:16;;;;;;;3.90;3.00;;;;;;;15.57;53.21;99520.98;107597;1260;60065;-67
2023/11/02 00:47:43;;;;;;;5.80;3.80;;;;;;;15.71;53.00;99526.23;107422;1260;60039;-66
2023/11/02 00:50:39;;;;;;;5.80;3.40;;;;;;;15.72;52.69;99525.11;107424;1260;71775;-66
2023/11/02 00:53:07;;;;;;;4.10;3.10;;;;;;;15.78;52.80;99517.67;107532;1260;69569;-65
2023/11/02 00:55:35;;;;;;;7.80;3.90;;;;;;;15.82;52.63;99518.79;107474;1263;71479;-67
2023/11/02 00:58:11;;;;;;;5.80;4.20;;;;;;;15.75;52.49;99512.17;107421;1263;60877;-67
2023/11/02 01:00:57;;;;;;;6.50;4.00;;;;;;;15.74;52.86;99514.02;107521;1259;59409;-66
2023/11/02 01:03:24;;;;;;;9.50;4.20;;;;;;;15.73;52.81;99511.29;107607;1259;73313;-67
2023/11/02 01:05:51;;;;;;;5.70;3.80;;;;;;;15.73;52.84;99511.45;107464;1259;68629;-67
2023/11/02 01:08:25;;;;;;;6.60;4.00;;;;;;;15.87;52.72;99510.34;107563;1259;72731;-66
2023/11/02 01:10:53;;;;;;;7.60;4.20;;;;;;;16.06;52.21;99511.14;107464;1261;60556;-67
2023/11/02 01:13:20;;;;;;;10.30;4.50;;;;;;;16.13;52.04;99512.18;107868;1257;60183;-65
2023/11/02 01:16:00;;;;;;;6.90;4.20;;;;;;;16.20;51.73;99514.95;107699;1256;72935;-65
2023/11/02 01:18:28;;;;;;;11.60;4.10;;;;;;;16.07;51.71;99511.58;107725;1257;70122;-65
2023/11/02 01:20:56;;;;;;;6.20;4.10;;;;;;;16.22;51.58;99514.64;107891;1257;72657;-66
2023/11/02 01:23:24;;;;;;;7.40;4.40;;;;;;;16.17;51.70;99517.66;107849;1257;59976;-66
2023/11/02 01:25:51;;;;;;;6.90;4.00;;;;;;;16.04;52.04;99515.38;107889;1255;60001;-66
2023/11/02 01:28:20;;;;;;;7.10;4.60;;;;;;;15.98;52.32;99516.09;107678;1257;73062;-66
2023/11/02 01:30:56;;;;;;;6.50;3.70;;;;;;;16.09;52.20;99519.03;107917;1257;70371;-66
2023/11/02 01:33:33;;;;;;;6.10;3.90;;;;;;;16.26;51.76;99522.69;107884;1257;71060;-66
2023/11/02 01:36:01;;;;;;;5.10;3.80;;;;;;;16.18;51.82;99527.11;107921;1257;61007;-66
2023/11/02 01:38:32;;;;;;;5.80;3.40;;;;;;;15.96;52.33;99527.41;107838;1257;59520;-66
2023/11/02 01:41:09;;;;;;;6.70;4.40;;;;;;;16.15;52.02;99531.36;107916;1256;71533;-66
2023/11/02 01:43:42;;;;;;;11.10;4.20;;;;;;;16.10;52.08;99529.27;107736;1257;68982;-66
2023/11/02 01:46:16;;;;;;;5.10;4.30;;;;;;;16.01;52.25;99532.90;107934;1257;71687;-66
2023/11/02 01:48:47;;;;;;;7.40;5.10;;;;;;;16.03;52.25;99534.14;107820;1257;61246;-65
2023/11/02 01:51:18;;;;;;;7.50;4.60;;;;;;;15.93;52.38;99535.02;107969;1257;59938;-65
2023/11/02 01:53:50;;;;;;;9.00;4.60;;;;;;;15.81;52.10;99537.28;107784;1257;73039;-67
2023/11/02 01:56:33;;;;;;;6.90;4.90;;;;;;;16.06;52.09;99540.52;107850;1257;70732;-65
2023/11/02 01:59:30;;;;;;;7.50;4.70;;;;;;;16.13;51.89;99539.31;107641;1257;72642;-66
2023/11/02 02:02:13;;;;;;;8.40;5.50;;;;;;;16.15;51.75;99537.77;107765;1257;59627;-65
2023/11/02 02:04:49;;;;;;;6.80;5.20;;;;;;;16.01;52.03;99544.02;107739;1257;59711;-67
2023/11/02 02:07:21;;;;;;;8.30;5.20;;;;;;;16.02;51.92;99544.88;107716;1257;72152;-64
2023/11/02 02:09:48;;;;;;;10.50;5.40;;;;;;;16.04;51.92;99540.25;107860;1261;68855;-65
2023/11/02 02:12:46;;;;;;;10.70;5.00;;;;;;;16.07;51.86;99545.17;107695;1260;71072;-66
2023/11/02 02:15:16;;;;;;;10.90;4.70;;;;;;;16.14;51.77;99548.64;107792;1257;59630;-66
2023/11/02 02:17:47;;;;;;;;;;;;;;;16.06;51.84;99549.02;107831;1257;59625;-65
2023/11/02 02:20:27;;;;;;;13.40;5.70;;;;;;;16.02;51.96;99547.70;107671;1256;73068;-66
2023/11/02 02:23:17;;;;;;;6.40;4.80;;;;;;;16.14;51.61;99548.48;107654;1258;69057;-67
2023/11/02 02:26:06;;;;;;;12.40;4.90;;;;;;;16.15;51.46;99550.55;107826;1257;71410;-67
2023/11/02 02:28:51;;;;;;;11.70;5.40;;;;;;;16.29;51.16;99549.02;107776;1257;59705;-65
2023/11/02 02:31:40;;;;;;;7.20;4.90;;;;;;;16.33;50.98;99549.59;107900;1257;60066;-67
2023/11/02 02:34:29;;;;;;;7.40;4.60;;;;;;;16.27;50.75;99554.44;107759;1257;73020;-66
2023/11/02 02:37:15;;;;;;;8.30;4.90;;;;;;;16.13;51.07;99557.86;107800;1257;72435;-64
2023/11/02 02:39:44;;;;;;;6.60;4.60;;;;;;;16.06;51.13;99558.20;107803;1258;71447;-65
2023/11/02 02:42:17;;;;;;;7.50;4.70;;;;;;;16.12;50.70;99558.20;107906;1257;60846;-66
2023/11/02 02:44:46;;;;;;;7.60;5.30;;;;;;;16.15;50.37;99557.55;107849;1257;60031;-67
2023/11/02 02:47:13;;;;;;;8.60;5.00;;;;;;;16.13;50.13;99558.63;107744;1257;73043;-65
2023/11/02 02:49:49;;;;;;;7.50;4.90;;;;;;;16.20;49.68;99560.11;107799;1258;69195;-67
2023/11/02 02:52:19;;;;;;;7.30;4.70;;;;;;;16.39;49.16;99558.93;107655;1258;72463;-66
2023/11/02 02:54:49;;;;;;;8.20;4.70;;;;;;;16.32;49.19;99560.69;107644;1257;59724;-67
2023/11/02 02:57:17;;;;;;;8.90;4.70;;;;;;;16.23;49.65;99560.24;107925;1261;59565;-65
2023/11/02 02:59:48;;;;;;;10.30;5.20;;;;;;;16.27;49.46;99557.82;107853;1257;72983;-66
2023/11/02 03:02:16;;;;;;;5.40;3.90;;;;;;;16.29;48.99;99559.08;107923;1257;68704;-66
2023/11/02 03:04:44;;;;;;;7.90;4.80;;;;;;;15.93;49.82;99563.02;107684;1257;71229;-64
2023/11/02 03:07:14;;;;;;;6.70;5.00;;;;;;;15.81;50.13;99567.15;107765;1257;60844;-65
2023/11/02 03:09:43;;;;;;;7.40;5.10;;;;;;;15.60;50.30;99571.00;107705;1260;59992;-64
2023/11/02 03:12:12;;;;;;;7.80;5.20;;;;;;;15.56;50.34;99573.39;107874;1256;71827;-66
2023/11/02 03:14:40;;;;;;;7.60;4.90;;;;;;;15.82;49.74;99575.46;107851;1257;70283;-67
2023/11/02 03:17:27;;;;;;;8.60;5.20;;;;;;;15.93;49.36;99579.16;107668;1257;71808;-66
2023/11/02 03:19:55;;;;;;;10.00;5.20;;;;;;;15.91;49.64;99582.45;107776;1260;60903;-66
2023/11/02 03:22:23;;;;;;;10.70;5.60;;;;;;;15.93;49.44;99588.52;107706;1257;60277;-66
2023/11/02 03:25:09;;;;;;;7.10;5.30;;;;;;;15.94;49.56;99589.86;107767;1261;73829;-66
2023/11/02 03:27:41;;;;;;;8.80;5.30;;;;;;;15.83;49.51;99590.04;107873;1257;68849;-66
2023/11/02 03:30:31;;;;;;;6.90;4.90;;;;;;;15.91;49.13;99589.51;107857;1257;72892;-67
2023/11/02 03:33:16;;;;;;;8.40;5.60;;;;;;;15.84;49.50;99596.20;107852;1257;60456;-66
2023/11/02 03:36:07;;;;;;;8.50;5.60;;;;;;;15.78;49.81;99591.96;107781;1258;59077;-67
2023/11/02 03:38:44;;;;;;;8.70;4.90;;;;;;;15.74;49.89;99590.45;107977;1257;72670;-66
2023/11/02 03:41:40;;;;;;;8.30;5.70;;;;;;;15.51;50.28;99591.06;107814;1262;68861;-66
2023/11/02 03:44:25;;;;;;;10.30;5.90;;;;;;;15.37;50.61;99590.77;107799;1260;71214;-67
2023/11/02 03:46:59;;;;;;;13.10;5.80;;;;;;;15.43;50.31;99595.33;108033;1260;60964;-67
2023/11/02 03:49:32;;;;;;;7.80;5.50;;;;;;;15.42;50.37;99593.80;107942;1257;59262;-66
2023/11/02 03:52:20;;;;;;;10.00;6.00;;;;;;;15.50;50.15;99597.50;107832;1256;76334;-66
2023/11/02 03:55:30;;;;;;;12.30;6.00;;;;;;;15.36;50.33;99595.96;107624;1262;68729;-66
2023/11/02 03:58:05;;;;;;;8.60;5.90;;;;;;;15.39;50.27;99598.44;107624;1260;72740;-66
2023/11/02 04:00:38;;;;;;;8.50;6.20;;;;;;;15.38;50.15;99597.11;108003;1254;60829;-66
2023/11/02 04:03:05;;;;;;;18.00;6.70;;;;;;;15.26;50.05;99596.61;108122;1254;60298;-66
2023/11/02 04:05:37;;;;;;;8.40;5.60;;;;;;;15.18;50.20;99603.16;108109;1258;72802;-67
2023/11/02 04:08:21;;;;;;;10.60;5.90;;;;;;;15.13;50.11;99600.64;108142;1255;70607;-66
2023/11/02 04:10:49;;;;;;;8.70;5.20;;;;;;;14.95;50.24;99606.02;108122;1257;75078;-65
2023/11/02 04:13:28;;;;;;;8.10;5.90;;;;;;;14.93;50.40;99606.84;108082;1254;60830;-66
2023/11/02 04:15:55;;;;;;;9.80;5.70;;;;;;;14.93;50.27;99609.85;107935;1254;60359;-65
2023/11/02 04:18:22;;;;;;;9.70;5.50;;;;;;;14.82;50.19;99610.38;108067;1254;76037;-66
2023/11/02 04:20:52;;;;;;;7.30;5.50;;;;;;;14.97;49.83;99609.11;108111;1253;70347;-65
2023/11/02 04:23:20;;;;;;;7.80;5.70;;;;;;;14.81;49.99;99610.27;108094;1257;72480;-65
2023/11/02 04:25:50;;;;;;;9.50;5.50;;;;;;;14.78;50.00;99612.03;108102;1259;60898;-66
2023/11/02 04:28:17;;;;;;;9.10;6.10;;;;;;;14.74;49.84;99612.79;108121;1254;60335;-66
2023/11/02 04:30:46;;;;;;;14.30;5.50;;;;;;;14.72;49.84;99614.32;108055;1254;74002;-66
2023/11/02 04:33:13;;;;;;;7.60;5.50;;;;;;;14.63;49.96;99610.81;108049;1257;70301;-66
2023/11/02 04:35:41;;;;;;;7.50;5.30;;;;;;;14.39;50.47;99611.59;108126;1253;72347;-67
2023/11/02 04:38:09;;;;;;;7.40;5.10;;;;;;;14.41;50.34;99613.40;108037;1254;60852;-66
2023/11/02 04:40:39;;;;;;;9.50;5.40;;;;;;;14.44;50.36;99617.63;108030;1259;58997;-65
2023/11/02 04:43:06;;;;;;;13.30;6.40;;;;;;;14.40;50.49;99618.38;107935;1254;72958;-65
2023/11/02 04:45:34;;;;;;;15.80;5.60;;;;;;;14.40;50.67;99623.15;108061;1255;69540;-66
2023/11/02 04:48:02;;;;;;;9.60;6.30;;;;;;;14.42;50.57;99625.36;107958;1255;71768;-65
2023/11/02 04:50:30;;;;;;;13.80;6.10;;;;;;;14.32;50.44;99627.02;108046;1253;61348;-65
2023/11/02 04:52:59;;;;;;;7.20;5.70;;;;;;;14.27;50.53;99628.01;108082;1254;59323;-66
2023/11/02 04:55:27;;;;;;;12.00;5.80;;;;;;;14.24;50.53;99629.76;108163;1253;73578;-66
2023/11/02 04:57:54;;;;;;;9.60;5.80;;;;;;;14.17;50.63;99634.65;108080;1254;70540;-66
2023/11/02 05:00:22;;;;;;;8.60;6.20;;;;;;;14.06;50.87;99630.35;108038;1254;73949;-67
2023/11/02 05:02:49;;;;;;;8.60;5.80;;;;;;;14.03;50.71;99630.16;108060;1254;60836;-66
2023/11/02 05:05:18;;;;;;;7.50;5.50;;;;;;;14.04;50.49;99635.04;108075;1254;59614;-66
2023/11/02 05:07:46;;;;;;;8.80;5.80;;;;;;;14.00;50.54;99634.54;107943;1254;73866;-66
2023/11/02 05:10:13;;;;;;;9.30;5.60;;;;;;;13.99;50.51;99634.81;108089;1253;70298;-66
2023/11/02 05:12:41;;;;;;;9.80;6.00;;;;;;;14.00;50.49;99634.05;108085;1254;71387;-66
2023/11/02 05:15:10;;;;;;;7.60;5.80;;;;;;;13.98;50.66;99639.98;107919;1254;60424;-66
2023/11/02 05:17:37;;;;;;;8.00;5.50;;;;;;;14.03;50.64;99642.66;108051;1259;60087;-66
2023/11/02 05:20:06;;;;;;;9.70;6.10;;;;;;;14.08;50.61;99643.45;108029;1258;72008;-66
2023/11/02 05:22:33;;;;;;;7.10;5.60;;;;;;;14.04;50.51;99646.49;108159;1255;69096;-67
2023/11/02 05:25:01;;;;;;;9.00;6.30;;;;;;;13.86;51.08;99656.23;108064;1259;72648;-66
2023/11/02 05:27:29;;;;;;;10.00;5.70;;;;;;;13.90;51.07;99660.38;108268;1254;61001;-66
2023/11/02 05:29:57;;;;;;;9.50;5.60;;;;;;;14.06;50.85;99660.69;108069;1255;60303;-66
2023/11/02 05:32:24;;;;;;;12.00;6.60;;;;;;;14.10;50.87;99660.80;108034;1256;72605;-66
2023/11/02 05:34:52;;;;;;;9.10;5.50;;;;;;;14.03;50.94;99669.00;108001;1259;70304;-69
2023/11/02 05:37:19;;;;;;;8.10;5.70;;;;;;;13.87;50.99;99665.49;108027;1255;71709;-66
2023/11/02 05:39:46;;;;;;;7.10;5.30;;;;;;;13.95;50.68;99670.50;108107;1254;60921;-65
2023/11/02 05:42:14;;;;;;;7.20;5.10;;;;;;;14.01;50.38;99669.79;108080;1255;60300;-66
2023/11/02 05:44:41;;;;;;;13.30;6.30;;;;;;;13.98;50.75;99672.45;108120;1254;73889;-67
2023/11/02 05:47:09;;;;;;;11.40;5.80;;;;;;;13.87;51.05;99675.73;108083;1254;70583;-66
2023/11/02 05:49:37;;;;;;;7.90;5.60;;;;;;;13.76;51.27;99683.09;108047;1254;71459;-67
2023/11/02 05:52:04;;;;;;;11.90;6.10;;;;;;;13.75;51.74;99685.30;108038;1254;60428;-67
2023/11/02 05:54:32;;;;;;;10.80;6.00;;;;;;;13.99;52.22;99691.10;108033;1254;60316;-66
2023/11/02 05:56:59;;;;;;;9.10;5.50;;;;;;;14.79;51.39;99693.45;108121;1253;73850;-66
2023/11/02 05:59:27;;;;;;;11.00;5.40;;;;;;;15.51;49.86;99693.15;108007;1254;70071;-66
2023/11/02 06:01:55;;;;;;;7.60;4.70;;;;;;;16.14;48.22;99696.67;108081;1254;72631;-66
2023/11/02 06:04:22;;;;;;;6.40;4.60;;;;;;;16.94;46.70;99696.75;108054;1254;60755;-67
2023/11/02 06:06:50;;;;;;;6.70;4.70;;;;;;;17.61;44.49;99703.66;108088;1254;60200;-66
2023/11/02 06:09:17;;;;;;;6.90;4.10;;;;;;;18.18;42.83;99699.95;108086;1254;74180;-66
2023/11/02 06:11:45;;;;;;;6.70;3.80;;;;;;;18.83;41.65;99699.15;108027;1260;69815;-66
2023/11/02 06:14:12;;;;;;;9.40;4.20;;;;;;;19.31;40.41;99694.09;108030;1254;71521;-67
2023/11/02 06:16:40;;;;;;;10.40;4.80;;;;;;;19.86;39.46;99696.91;108010;1254;63639;-67
2023/11/02 06:19:07;;;;;;;15.20;5.80;;;;;;;20.11;38.14;99697.91;108104;1260;60181;-67
2023/11/02 06:21:36;;;;;;;10.20;4.70;;;;;;;20.44;37.38;99696.92;108043;1254;72149;-67
2023/11/02 06:24:04;;;;;;;9.70;4.60;;;;;;;20.91;36.90;99702.05;108054;1255;69971;-67
2023/11/02 06:26:31;;;;;;;6.20;3.60;;;;;;;21.30;36.10;99703.23;108093;1254;71041;-67
2023/11/02 06:28:59;;;;;;;6.20;3.10;;;;;;;21.83;35.29;99703.55;108107;1254;60282;-68
2023/11/02 06:31:26;;;;;;;4.30;3.20;;;;;;;22.14;34.31;99699.23;107969;1254;60308;-67
2023/11/02 06:33:54;;;;;;;8.50;2.80;;;;;;;22.50;33.58;99695.76;108022;1258;73854;-67
2023/11/02 06:36:22;;;;;;;4.50;2.90;;;;;;;22.89;33.04;99697.41;108023;1260;68761;-69
2023/11/02 06:38:51;;;;;;;5.00;2.80;;;;;;;23.08;32.42;99697.28;108030;1254;75310;-67
2023/11/02 06:41:18;;;;;;;3.80;2.70;;;;;;;23.48;31.86;99698.08;107949;1254;60546;-67
2023/11/02 06:43:46;;;;;;;5.30;3.10;;;;;;;23.87;31.60;99701.77;107951;1254;60309;-66
2023/11/02 06:46:13;;;;;;;7.80;2.90;;;;;;;24.20;30.89;99700.80;108000;1254;74037;-67
2023/11/02 06:48:40;;;;;;;5.00;2.50;;;;;;;24.67;30.13;99701.27;108164;1254;70808;-68
2023/11/02 06:51:08;;;;;;;7.00;2.90;;;;;;;24.93;30.12;99699.09;108157;1254;72629;-67
2023/11/02 06:53:35;;;;;;;3.90;2.70;;;;;;;25.20;28.61;99703.31;108002;1254;60328;-67
2023/11/02 06:56:03;;;;;;;3.70;2.60;;;;;;;25.11;28.32;99702.80;108082;1254;60280;-67
2023/11/02 06:58:31;;;;;;;6.30;2.80;;;;;;;25.29;28.53;99701.23;108095;1254;72399;-68
2023/11/02 07:01:00;;;;;;;4.10;2.20;;;;;;;25.58;28.08;99703.40;108081;1254;70465;-68
2023/11/02 07:03:27;;;;;;;3.00;2.30;;;;;;;25.93;27.82;99705.77;107971;1257;72750;-67
2023/11/02 07:05:55;;;;;;;3.80;2.10;;;;;;;26.45;27.15;99707.48;108110;1254;60406;-68
2023/11/02 07:08:22;;;;;;;6.40;2.60;;;;;;;27.08;27.01;99704.66;107994;1254;60322;-68
2023/11/02 07:10:50;;;;;;;4.50;2.20;;;;;;;27.60;26.04;99701.96;108059;1254;74459;-67
2023/11/02 07:13:18;;;;;;;2.90;2.00;;;;;;;27.95;25.62;99704.12;107998;1254;69629;-68
2023/11/02 07:15:46;;;;;;;3.50;2.10;;;;;;;28.41;25.14;99705.45;108003;1260;72784;-67
2023/11/02 07:18:13;;;;;;;3.80;2.20;;;;;;;28.59;23.94;99703.15;107990;1254;60261;-67
2023/11/02 07:20:41;;;;;;;4.80;2.20;;;;;;;28.65;23.89;99701.10;108054;1254;60315;-68
2023/11/02 07:23:08;;;;;;;4.60;2.10;;;;;;;28.81;24.06;99706.05;108044;1254;72615;-68
2023/11/02 07:25:39;;;;;;;3.70;2.30;;;;;;;29.00;23.63;99695.14;108028;1254;69354;-66
2023/11/02 07:28:07;;;;;;;8.40;2.40;;;;;;;29.29;23.26;99697.50;108167;1254;72727;-69
2023/11/02 07:30:34;;;;;;;2.70;1.80;;;;;;;29.45;22.57;99700.17;108031;1257;60305;-68
2023/11/02 07:33:03;;;;;;;3.40;2.20;;;;;;;29.35;22.11;99703.12;108074;1254;59556;-69
2023/11/02 07:35:31;;;;;;;2.20;1.80;;;;;;;29.05;22.87;99702.02;108132;1254;74014;-68
2023/11/02 07:37:59;;;;;;;2.90;1.90;;;;;;;29.18;22.94;99704.78;108066;1254;70124;-68
2023/11/02 07:40:26;;;;;;;5.90;3.70;;;;;;;29.57;22.95;99703.61;108050;1255;73164;-68
2023/11/02 07:42:54;;;;;;;8.50;3.80;;;;;;;29.81;22.47;99703.33;108003;1254;60673;-68
2023/11/02 07:45:21;;;;;;;5.00;2.10;;;;;;;30.10;22.21;99706.56;108052;1254;60344;-68
2023/11/02 07:47:49;;;;;;;3.80;2.10;;;;;;;30.34;21.60;99707.93;108029;1253;73892;-68
2023/11/02 07:50:18;;;;;;;4.50;1.80;;;;;;;30.33;21.54;99706.20;108072;1254;70093;-68
2023/11/02 07:52:46;;;;;;;3.00;1.80;;;;;;;30.59;21.30;99704.67;108047;1254;72653;-68
2023/11/02 07:55:13;;;;;;;5.40;2.20;;;;;;;30.93;21.39;99706.19;108138;1254;60408;-68
2023/11/02 07:57:41;;;;;;;2.90;2.00;;;;;;;30.85;20.91;99710.10;108091;1254;60379;-68
2023/11/02 08:00:10;;;;;;;4.50;1.80;;;;;;;30.32;21.20;99718.44;108094;1254;73380;-68
2023/11/02 08:02:40;;;;;;;4.00;2.00;;;;;;;30.01;21.65;99721.49;107895;1257;68817;-68
2023/11/02 08:05:08;;;;;;;4.10;2.00;;;;;;;30.07;21.55;99723.31;107924;1257;72713;-68
2023/11/02 08:07:35;;;;;;;3.50;2.00;;;;;;;30.44;21.96;99727.08;107934;1254;60462;-69
2023/11/02 08:10:03;;;;;;;3.50;1.80;;;;;;;30.70;21.54;99723.61;107994;1254;60197;-68
2023/11/02 08:12:33;;;;;;;4.50;2.00;;;;;;;30.98;21.12;99726.14;108046;1254;73822;-68
2023/11/02 08:15:01;;;;;;;2.40;1.80;;;;;;;30.93;20.85;99725.05;107925;1254;69704;-68
2023/11/02 08:17:28;;;;;;;4.00;2.00;;;;;;;30.95;20.80;99724.20;107945;1254;73636;-68
2023/11/02 08:19:57;;;;;;;3.00;2.00;;;;;;;31.05;21.02;99718.06;107740;1254;60293;-68
2023/11/02 08:22:25;;;;;;;2.80;1.80;;;;;;;31.47;20.97;99715.27;107934;1254;60306;-69
2023/11/02 08:24:52;;;;;;;4.30;2.20;;;;;;;31.70;20.40;99711.36;107948;1254;73953;-69
2023/11/02 08:27:19;;;;;;;3.10;2.00;;;;;;;31.71;20.48;99710.95;108000;1259;70017;-67
2023/11/02 08:29:47;;;;;;;3.00;2.30;;;;;;;31.68;20.36;99712.11;107882;1259;72698;-67
2023/11/02 08:32:15;;;;;;;4.40;2.10;;;;;;;31.72;20.63;99712.00;107963;1257;59873;-69
2023/11/02 08:34:43;;;;;;;3.50;1.70;;;;;;;32.01;20.18;99713.31;107979;1259;59138;-68
2023/11/02 08:37:11;;;;;;;8.00;2.00;;;;;;;32.45;20.00;99720.99;107909;1254;73586;-67
2023/11/02 08:39:39;;;;;;;2.80;1.70;;;;;;;32.53;20.20;99721.47;108029;1254;69101;-67
2023/11/02 08:42:07;;;;;;;2.80;2.10;;;;;;;33.19;19.74;99717.66;107957;1254;72690;-69
2023/11/02 08:44:38;;;;;;;4.00;1.80;;;;;;;33.54;19.44;99720.70;107937;1256;60411;-69
2023/11/02 08:47:09;;;;;;;3.40;1.70;;;;;;;33.38;19.53;99719.59;107932;1254;60393;-68
2023/11/02 08:49:37;;;;;;;3.20;1.50;;;;;;;33.26;18.97;99725.54;107898;1254;73855;-70
2023/11/02 08:52:04;;;;;;;3.60;1.80;;;;;;;33.27;19.02;99724.65;107979;1254;70832;-68
2023/11/02 08:54:32;;;;;;;3.00;1.80;;;;;;;33.28;18.82;99726.20;107917;1254;73193;-68
2023/11/02 08:56:59;;;;;;;7.70;1.90;;;;;;;33.20;18.79;99725.64;107789;1260;60371;-66
2023/11/02 08:59:27;;;;;;;4.40;1.90;;;;;;;33.19;18.95;99724.00;107862;1256;60309;-70
2023/11/02 09:01:56;;;;;;;9.30;2.50;;;;;;;33.07;18.71;99720.34;107878;1257;72416;-67
2023/11/02 09:04:24;;;;;;;3.60;2.20;;;;;;;33.14;18.71;99724.27;107833;1260;70106;-67
2023/11/02 09:06:51;;;;;;;7.40;2.60;;;;;;;33.28;18.93;99723.27;107929;1257;72763;-67
2023/11/02 09:09:19;;;;;;;9.30;2.40;;;;;;;33.10;18.47;99714.54;107909;1257;61579;-68
2023/11/02 09:11:47;;;;;;;19.40;3.30;;;;;;;32.47;19.06;99713.86;107910;1256;60293;-68
2023/11/02 09:14:14;;;;;;;6.00;1.90;;;;;;;31.65;19.68;99713.05;107890;1260;75811;-68
2023/11/02 09:16:42;;;;;;;7.00;2.30;;;;;;;31.26;20.04;99716.05;107873;1257;70668;-68
2023/11/02 09:19:09;;;;;;;7.10;3.10;;;;;;;30.94;20.59;99713.52;107918;1257;72744;-69
2023/11/02 09:21:38;;;;;;;3.70;2.40;;;;;;;30.88;20.66;99709.95;107924;1256;60421;-68
2023/11/02 09:24:06;;;;;;;5.10;2.60;;;;;;;31.15;20.42;99704.90;107878;1256;60444;-68
2023/11/02 09:26:35;;;;;;;10.40;3.00;;;;;;;31.33;20.24;99699.89;107922;1257;72638;-69
2023/11/02 09:29:02;;;;;;;4.10;2.20;;;;;;;31.70;20.35;99697.23;107940;1256;70339;-69
2023/11/02 09:31:32;;;;;;;4.50;2.00;;;;;;;31.84;19.77;99699.09;107997;1256;72494;-69
2023/11/02 09:34:03;;;;;;;10.90;2.50;;;;;;;31.93;19.83;99694.13;107784;1257;60208;-69
2023/11/02 09:36:30;;;;;;;6.10;2.40;;;;;;;31.75;19.95;99692.16;107835;1257;60431;-69
2023/11/02 09:39:03;;;;;;;5.50;1.90;;;;;;;32.00;20.02;99687.58;107880;1256;72617;-68
2023/11/02 09:41:31;;;;;;;3.00;2.10;;;;;;;31.92;19.79;99691.48;107866;1257;69985;-68
2023/11/02 09:43:59;;;;;;;11.80;2.80;;;;;;;32.10;20.03;99688.98;107793;1257;71555;-68
2023/11/02 09:46:26;;;;;;;3.80;1.80;;;;;;;31.94;19.69;99689.06;107911;1257;60451;-69
2023/11/02 09:48:53;;;;;;;3.70;2.20;;;;;;;31.33;20.11;99684.78;107920;1258;60475;-68
2023/11/02 09:51:23;;;;;;;2.00;1.80;;;;;;;31.20;20.50;99680.20;107877;1256;74506;-68
2023/11/02 09:53:51;;;;;;;4.40;2.50;;;;;;;31.06;20.66;99679.96;107851;1257;70762;-68
2023/11/02 09:56:19;;;;;;;5.10;2.20;;;;;;;30.88;21.04;99682.18;107777;1256;71075;-68
2023/11/02 09:58:46;;;;;;;4.50;2.40;;;;;;;30.50;21.35;99684.33;107731;1257;60345;-68
2023/11/02 10:01:14;;;;;;;15.30;3.10;;;;;;;30.43;21.47;99677.92;107877;1257;60520;-69
2023/11/02 10:03:42;;;;;;;12.50;2.70;;;;;;;30.45;21.59;99681.13;107872;1257;73898;-69
2023/11/02 10:06:10;;;;;;;13.30;3.40;;;;;;;30.49;21.52;99676.46;107880;1257;69971;-69
2023/11/02 10:08:38;;;;;;;19.10;3.40;;;;;;;31.00;21.40;99679.20;107858;1257;73886;-68
2023/11/02 10:11:10;;;;;;;4.00;2.50;;;;;;;31.36;21.40;99674.75;107888;1256;60259;-68
2023/11/02 10:13:38;;;;;;;8.50;2.40;;;;;;;31.72;20.75;99673.51;107875;1256;61086;-67
2023/11/02 10:16:06;;;;;;;5.30;2.10;;;;;;;32.17;20.75;99677.85;107875;1255;72676;-69
2023/11/02 10:18:33;;;;;;;4.80;2.70;;;;;;;32.13;20.46;99677.09;107784;1255;72159;-68
2023/11/02 10:21:05;;;;;;;4.00;3.10;;;;;;;31.88;20.23;99673.51;107825;1260;74920;-68
2023/11/02 10:24:03;;;;;;;6.20;2.60;;;;;;;31.07;21.08;99671.88;107824;1255;61066;-69
2023/11/02 10:26:34;;;;;;;13.50;3.20;;;;;;;29.98;22.16;99674.15;107756;1256;60267;-67
2023/11/02 10:29:02;;;;;;;5.70;3.00;;;;;;;29.89;22.31;99675.94;107774;1257;72428;-68
2023/11/02 10:31:33;;;;;;;5.00;2.80;;;;;;;29.99;22.65;99673.08;107768;1256;70128;-68
2023/11/02 10:34:02;;;;;;;4.30;3.20;;;;;;;30.53;22.27;99670.38;107918;1256;74884;-68
2023/11/02 10:36:29;;;;;;;3.50;2.80;;;;;;;31.29;21.49;99660.32;107890;1254;62183;-66
2023/11/02 10:38:57;;;;;;;4.60;3.00;;;;;;;31.74;21.23;99662.88;107941;1256;62204;-68
2023/11/02 10:41:25;;;;;;;4.40;2.70;;;;;;;32.13;21.27;99655.48;107860;1254;74346;-68
2023/11/02 10:43:52;;;;;;;4.30;2.40;;;;;;;32.61;20.88;99653.83;107865;1260;70780;-66
2023/11/02 10:46:20;;;;;;;6.50;2.50;;;;;;;32.96;20.21;99647.96;107980;1257;72676;-68
2023/11/02 10:48:49;;;;;;;7.30;2.90;;;;;;;33.31;19.97;99653.39;107805;1256;60272;-68
2023/11/02 10:51:18;;;;;;;4.30;2.60;;;;;;;32.98;19.95;99654.54;107921;1255;60342;-68
2023/11/02 10:53:50;;;;;;;3.40;2.40;;;;;;;33.03;20.17;99653.25;108024;1255;75292;-69
2023/11/02 10:56:22;;;;;;;5.60;2.40;;;;;;;32.68;20.28;99653.23;108002;1256;70808;-69
2023/11/02 10:58:50;;;;;;;5.30;2.60;;;;;;;32.00;20.73;99657.73;107967;1256;74813;-68
2023/11/02 11:01:18;;;;;;;4.80;2.30;;;;;;;31.53;21.38;99655.66;107868;1256;60403;-67
2023/11/02 11:03:50;;;;;;;7.30;2.60;;;;;;;31.33;21.55;99653.38;107956;1255;60194;-68
2023/11/02 11:06:18;;;;;;;3.80;2.30;;;;;;;30.76;22.20;99652.36;107897;1255;76074;-68
2023/11/02 11:08:46;;;;;;;5.60;2.70;;;;;;;30.60;22.28;99656.77;107710;1254;69427;-68
2023/11/02 11:11:14;;;;;;;5.70;2.20;;;;;;;30.45;22.58;99651.65;107705;1256;71454;-68
2023/11/02 11:13:42;;;;;;;4.10;2.60;;;;;;;30.50;22.59;99651.44;107697;1256;198004;-68
2023/11/02 11:17:39;;;;;;;4.10;2.90;;;;;;;29.14;24.10;99651.55;105213;1286;599873;-68
2023/11/02 11:20:07;;;;;;;4.30;2.90;;;;;;;29.15;23.71;99653.30;107402;1266;59952;-67
2023/11/02 11:22:34;;;;;;;5.20;2.90;;;;;;;29.12;24.22;99655.02;107414;1264;61145;-67
2023/11/02 11:25:04;;;;;;;10.70;3.80;;;;;;;29.25;24.06;99650.58;107217;1264;71249;-68
2023/11/02 11:27:35;;;;;;;6.00;3.00;;;;;;;29.48;23.90;99649.30;107376;1265;71758;-68
2023/11/02 11:30:27;;;;;;;4.90;2.70;;;;;;;29.40;23.96;99647.70;107253;1266;231441;-68
2023/11/02 11:32:54;;;;;;;6.10;3.20;;;;;;;28.98;24.30;99646.71;107408;1263;61462;-67
2023/11/02 11:35:21;;;;;;;6.90;3.00;;;;;;;28.38;24.85;99645.70;107497;1263;59477;-69
2023/11/02 11:37:57;;;;;;;3.90;2.70;;;;;;;28.16;25.42;99642.53;107505;1266;70257;-68
2023/11/02 11:40:23;;;;;;;5.60;3.40;;;;;;;28.50;25.44;99641.81;107532;1262;70270;-68
2023/11/02 11:43:08;;;;;;;7.30;3.00;;;;;;;28.75;25.31;99639.86;107580;1263;72547;-68